createdAt,value
2017-12-29T06:23:27.252Z,90.60
2017-12-29T06:25:59.131Z,90.30
2017-12-29T06:28:30.995Z,90.20
2017-12-29T06:31:02.882Z,90.20
2017-12-29T06:33:34.741Z,90.20
2017-12-29T06:36:06.623Z,90.10
2017-12-29T06:38:38.483Z,90.20
2017-12-29T06:41:10.366Z,90.10
2017-12-29T06:43:42.238Z,90.20
2017-12-29T06:46:14.126Z,90.20
2017-12-29T06:48:46.767Z,90.20
2017-12-29T06:51:18.659Z,90.20
2017-12-29T06:53:51.291Z,90.30
2017-12-29T06:56:23.181Z,90.30
2017-12-29T06:58:55.052Z,90.30
2017-12-29T07:01:27.718Z,90.80
2017-12-29T07:03:59.588Z,90.50
2017-12-29T07:06:31.491Z,90.50
2017-12-29T07:09:03.354Z,90.70
2017-12-29T07:11:35.243Z,90.40
2017-12-29T07:14:07.111Z,90.40
2017-12-29T07:16:39.002Z,90.50
2017-12-29T07:19:11.647Z,90.60
2017-12-29T07:21:43.579Z,90.50
2017-12-29T07:24:15.443Z,90.50
2017-12-29T07:26:47.339Z,90.60
2017-12-29T07:29:19.207Z,90.70
2017-12-29T07:31:51.859Z,91.00
2017-12-29T07:34:23.769Z,90.80
2017-12-29T07:36:57.214Z,90.90
2017-12-29T07:39:29.087Z,90.80
2017-12-29T07:42:00.975Z,90.80
2017-12-29T07:44:33.603Z,90.70
2017-12-29T07:47:05.491Z,90.70
2017-12-29T07:49:37.359Z,90.40
2017-12-29T07:52:09.242Z,90.40
2017-12-29T07:54:41.107Z,90.40
2017-12-29T07:57:13.007Z,90.00
2017-12-29T07:59:44.875Z,89.90
2017-12-29T08:02:16.762Z,89.90
2017-12-29T08:04:49.402Z,89.90
2017-12-29T08:07:21.301Z,89.90
2017-12-29T08:09:53.933Z,89.40
2017-12-29T08:12:25.818Z,88.80
2017-12-29T08:14:57.687Z,89.00
2017-12-29T08:17:29.582Z,88.90
2017-12-29T08:20:01.454Z,89.20
2017-12-29T08:22:33.343Z,88.70
2017-12-29T08:25:05.215Z,88.40
2017-12-29T08:27:37.111Z,88.50
2017-12-29T08:30:09.745Z,88.40
2017-12-29T08:32:41.638Z,88.30
2017-12-29T08:35:14.270Z,88.30
2017-12-29T08:37:46.395Z,88.20
2017-12-29T08:40:18.259Z,87.90
2017-12-29T08:42:50.134Z,88.00
2017-12-29T08:45:22.003Z,87.80
2017-12-29T08:47:53.891Z,87.60
2017-12-29T08:50:25.765Z,87.40
2017-12-29T08:52:57.655Z,87.30
2017-12-29T08:55:30.283Z,87.30
2017-12-29T08:58:02.193Z,87.30
2017-12-29T09:00:34.819Z,87.10
2017-12-29T09:03:06.718Z,87.10
2017-12-29T09:05:39.346Z,86.50
2017-12-29T09:08:11.231Z,86.50
2017-12-29T09:10:43.099Z,86.90
2017-12-29T09:13:14.975Z,86.50
2017-12-29T09:15:48.146Z,86.60
2017-12-29T09:18:20.024Z,85.90
2017-12-29T09:20:52.652Z,86.00
2017-12-29T09:23:24.530Z,86.00
2017-12-29T09:25:56.395Z,85.50
2017-12-29T09:28:28.288Z,85.80
2017-12-29T09:31:00.931Z,85.20
2017-12-29T09:33:32.812Z,85.20
2017-12-29T09:36:04.683Z,85.00
2017-12-29T09:38:37.327Z,84.70
2017-12-29T09:41:09.203Z,84.70
2017-12-29T09:43:41.098Z,84.70
2017-12-29T09:46:12.963Z,84.20
2017-12-29T09:48:44.855Z,84.50
2017-12-29T09:51:16.718Z,83.70
2017-12-29T09:53:48.611Z,83.50
2017-12-29T09:56:20.483Z,83.80
2017-12-29T09:58:53.140Z,83.00
2017-12-29T10:01:25.008Z,83.00
2017-12-29T10:03:56.915Z,82.80
2017-12-29T10:06:28.787Z,82.70
2017-12-29T10:09:00.682Z,82.30
2017-12-29T10:11:32.552Z,82.40
2017-12-29T10:14:05.459Z,81.10
2017-12-29T10:16:37.332Z,81.00
2017-12-29T10:19:09.486Z,81.00
2017-12-29T10:21:41.351Z,80.90
2017-12-29T10:24:13.247Z,80.10
2017-12-29T10:26:45.108Z,80.10
2017-12-29T10:29:16.999Z,81.10
2017-12-29T10:31:48.867Z,79.90
2017-12-29T10:34:21.506Z,79.00
2017-12-29T10:36:53.369Z,79.70
2017-12-29T10:39:25.263Z,79.10
2017-12-29T10:41:57.898Z,79.10
2017-12-29T10:44:29.782Z,79.10
2017-12-29T10:47:01.651Z,78.40
2017-12-29T10:49:33.539Z,78.00
2017-12-29T10:52:05.415Z,77.70
2017-12-29T10:54:37.300Z,77.00
2017-12-29T10:57:09.167Z,76.60
2017-12-29T10:59:41.058Z,77.10
2017-12-29T11:02:13.707Z,76.60
2017-12-29T11:04:46.347Z,77.30
2017-12-29T11:07:18.219Z,77.30
2017-12-29T11:09:50.112Z,76.20
2017-12-29T11:12:21.978Z,75.80
2017-12-29T11:14:53.871Z,76.60
2017-12-29T11:17:26.652Z,76.60
2017-12-29T11:19:59.307Z,76.80
2017-12-29T11:22:31.179Z,76.70
2017-12-29T11:25:03.842Z,76.60
2017-12-29T11:27:35.706Z,76.50
2017-12-29T11:30:08.363Z,76.60
2017-12-29T11:32:40.235Z,75.90
2017-12-29T11:35:12.135Z,75.90
2017-12-29T11:37:44.003Z,75.70
2017-12-29T11:40:15.890Z,75.60
2017-12-29T11:42:48.532Z,76.50
2017-12-29T11:45:20.428Z,76.50
2017-12-29T11:47:52.294Z,76.80
2017-12-29T11:50:24.190Z,76.10
2017-12-29T11:52:56.823Z,75.40
2017-12-29T11:55:28.946Z,75.40
2017-12-29T11:58:00.819Z,75.50
2017-12-29T12:00:32.701Z,76.20
2017-12-29T12:03:04.558Z,75.60
2017-12-29T12:05:36.452Z,76.10
2017-12-29T12:08:08.311Z,75.60
2017-12-29T12:10:40.195Z,76.10
2017-12-29T12:13:12.826Z,75.60
2017-12-29T12:15:44.702Z,75.50
2017-12-29T12:18:16.571Z,76.10
2017-12-29T12:20:48.461Z,75.50
2017-12-29T12:23:21.347Z,76.70
2017-12-29T12:25:53.242Z,76.70
2017-12-29T12:28:25.108Z,76.00
2017-12-29T12:30:56.990Z,76.20
2017-12-29T12:33:28.856Z,76.10
2017-12-29T12:36:00.730Z,75.80
2017-12-29T12:38:33.371Z,76.20
2017-12-29T12:41:05.251Z,76.20
2017-12-29T12:43:37.131Z,76.00
2017-12-29T12:46:09.790Z,77.20
2017-12-29T12:48:41.681Z,77.20
2017-12-29T12:51:14.334Z,77.30
2017-12-29T12:53:46.202Z,77.30
2017-12-29T12:56:18.101Z,77.80
2017-12-29T12:58:49.954Z,78.60
2017-12-29T13:01:21.861Z,79.80
2017-12-29T13:03:53.730Z,78.50
2017-12-29T13:06:25.934Z,79.80
2017-12-29T13:08:57.794Z,79.70
2017-12-29T13:11:29.689Z,81.20
2017-12-29T13:14:01.547Z,81.70
2017-12-29T13:16:33.439Z,82.10
2017-12-29T13:19:05.315Z,81.60
2017-12-29T13:21:37.960Z,80.70
2017-12-29T13:24:09.834Z,80.70
2017-12-29T13:26:41.727Z,80.60
2017-12-29T13:29:13.587Z,81.60
2017-12-29T13:31:45.475Z,81.90
2017-12-29T13:34:17.351Z,82.20
2017-12-29T13:36:49.470Z,82.60
2017-12-29T13:39:21.635Z,82.70
2017-12-29T13:41:53.531Z,82.90
2017-12-29T13:44:25.395Z,83.40
2017-12-29T13:46:57.527Z,83.60
2017-12-29T13:49:29.387Z,83.30
2017-12-29T13:52:01.275Z,84.50
2017-12-29T13:54:33.143Z,85.00
2017-12-29T13:57:05.015Z,86.60
2017-12-29T13:59:36.883Z,85.40
2017-12-29T14:02:08.771Z,85.90
2017-12-29T14:04:41.402Z,88.40
2017-12-29T14:07:13.314Z,88.40
2017-12-29T14:09:45.950Z,89.00
2017-12-29T14:12:17.839Z,89.00
2017-12-29T14:14:49.703Z,90.10
2017-12-29T14:17:22.374Z,90.70
2017-12-29T14:19:54.244Z,90.70
2017-12-29T14:22:26.907Z,90.80
2017-12-29T14:24:58.775Z,90.80
2017-12-29T14:27:30.661Z,90.70
2017-12-29T14:30:02.549Z,90.50
2017-12-29T14:32:34.443Z,91.20
2017-12-29T14:35:06.303Z,90.70
2017-12-29T14:37:38.184Z,90.80
2017-12-29T14:40:10.817Z,90.50
2017-12-29T14:42:42.715Z,90.50
2017-12-29T14:45:15.359Z,90.30
2017-12-29T14:47:47.243Z,90.30
2017-12-29T14:50:19.110Z,90.50
2017-12-29T14:52:50.991Z,90.70
2017-12-29T14:55:22.867Z,90.90
2017-12-29T14:57:54.813Z,91.10
2017-12-29T15:00:27.444Z,91.50
2017-12-29T15:02:59.331Z,91.40
2017-12-29T15:05:32.234Z,92.10
2017-12-29T15:08:04.128Z,92.00
2017-12-29T15:10:37.634Z,92.20
2017-12-29T15:13:09.535Z,92.50
2017-12-29T15:15:42.435Z,92.60
2017-12-29T15:18:14.334Z,92.60
2017-12-29T15:20:46.207Z,92.80
2017-12-29T15:23:18.110Z,92.90
2017-12-29T15:25:50.750Z,93.20
2017-12-29T15:28:22.663Z,93.20
2017-12-29T15:30:54.527Z,93.40
2017-12-29T15:33:26.423Z,93.50
2017-12-29T15:35:58.292Z,93.50
2017-12-29T15:38:30.190Z,93.40
2017-12-29T15:41:02.830Z,93.80
2017-12-29T15:43:34.719Z,93.80
2017-12-29T15:46:07.360Z,94.10
2017-12-29T15:48:39.263Z,94.10
2017-12-29T15:51:11.895Z,94.10
2017-12-29T15:53:43.786Z,94.10
2017-12-29T15:56:16.422Z,94.10
2017-12-29T15:58:48.323Z,94.00
2017-12-29T16:01:25.747Z,94.30
2017-12-29T16:03:57.635Z,94.30
2017-12-29T16:06:29.503Z,94.20
2017-12-29T16:09:01.395Z,94.30
2017-12-29T16:11:33.252Z,94.20
2017-12-29T16:14:05.161Z,94.40
2017-12-29T16:16:37.031Z,94.10
2017-12-29T16:19:08.934Z,94.20
2017-12-29T16:21:40.831Z,94.40
2017-12-29T16:24:12.703Z,94.40
2017-12-29T16:26:44.570Z,94.20
2017-12-29T16:29:16.455Z,94.10
2017-12-29T16:31:48.327Z,94.40
2017-12-29T16:34:20.211Z,94.20
2017-12-29T16:36:52.851Z,94.10
2017-12-29T16:39:24.755Z,94.10
2017-12-29T16:41:56.628Z,94.10
2017-12-29T16:44:28.516Z,94.00
2017-12-29T16:47:00.438Z,94.10
2017-12-29T16:49:33.091Z,94.00
2017-12-29T16:52:04.950Z,93.90
2017-12-29T16:54:36.850Z,94.10
2017-12-29T16:57:08.727Z,94.10
2017-12-29T16:59:40.611Z,94.10
2017-12-29T17:02:13.243Z,94.20
2017-12-29T17:04:45.139Z,94.20
2017-12-29T17:07:17.006Z,94.20
2017-12-29T17:09:48.900Z,94.20
2017-12-29T17:12:21.548Z,94.00
2017-12-29T17:14:53.438Z,94.00
2017-12-29T17:17:26.071Z,93.90
2017-12-29T17:19:57.959Z,93.90
2017-12-29T17:22:29.831Z,94.20
2017-12-29T17:25:02.486Z,93.90
2017-12-29T17:27:34.360Z,93.90
2017-12-29T17:30:06.561Z,93.90
2017-12-29T17:32:38.423Z,94.10
2017-12-29T17:35:10.579Z,93.80
2017-12-29T17:37:42.451Z,94.10
2017-12-29T17:40:14.347Z,94.20
2017-12-29T17:42:46.232Z,94.00
2017-12-29T17:45:18.126Z,94.10
2017-12-29T17:47:49.991Z,93.90
2017-12-29T17:50:21.891Z,93.80
2017-12-29T17:52:53.761Z,94.00
2017-12-29T17:55:25.638Z,94.20
2017-12-29T17:57:58.271Z,94.50
2017-12-29T18:00:30.179Z,94.20
2017-12-29T18:03:02.806Z,94.50
2017-12-29T18:05:34.946Z,94.30
2017-12-29T18:08:06.815Z,94.20
2017-12-29T18:10:38.711Z,94.00
2017-12-29T18:13:10.593Z,94.10
2017-12-29T18:15:42.507Z,94.30
2017-12-29T18:18:14.370Z,94.20
2017-12-29T18:20:46.262Z,94.30
2017-12-29T18:23:18.135Z,94.20
2017-12-29T18:25:50.031Z,94.20
2017-12-29T18:28:21.894Z,94.30
2017-12-29T18:30:53.786Z,94.30
2017-12-29T18:33:25.666Z,94.60
2017-12-29T18:35:57.555Z,94.60
2017-12-29T18:38:30.190Z,94.50
2017-12-29T18:41:02.087Z,94.50
2017-12-29T18:43:34.723Z,94.20
2017-12-29T18:46:06.630Z,94.20
2017-12-29T18:48:39.262Z,94.30
2017-12-29T18:51:11.155Z,94.30
2017-12-29T18:53:43.018Z,94.10
2017-12-29T18:56:15.663Z,94.30
2017-12-29T18:58:47.782Z,94.30
2017-12-29T19:01:19.675Z,94.20
2017-12-29T19:03:51.531Z,94.10
2017-12-29T19:06:23.419Z,94.10
2017-12-29T19:08:55.286Z,94.10
2017-12-29T19:11:27.169Z,94.20
2017-12-29T19:13:59.802Z,94.20
2017-12-29T19:16:31.702Z,94.10
2017-12-29T19:19:03.560Z,94.20
2017-12-29T19:21:36.214Z,94.30
2017-12-29T19:24:08.087Z,94.30
2017-12-29T19:26:39.984Z,94.30
2017-12-29T19:29:11.875Z,94.30
2017-12-29T19:31:43.770Z,94.20
2017-12-29T19:34:15.871Z,94.20
2017-12-29T19:36:47.827Z,94.20
2017-12-29T19:39:19.697Z,94.20
2017-12-29T19:41:51.599Z,94.20
2017-12-29T19:44:23.463Z,94.20
2017-12-29T19:46:55.357Z,94.30
2017-12-29T19:49:27.991Z,94.40
2017-12-29T19:51:59.882Z,94.30
2017-12-29T19:54:32.516Z,94.60
2017-12-29T19:57:04.418Z,94.40
2017-12-29T19:59:36.287Z,94.50
2017-12-29T20:02:08.951Z,94.70
2017-12-29T20:04:40.814Z,94.60
2017-12-29T20:07:12.703Z,94.70
2017-12-29T20:09:44.571Z,95.00
2017-12-29T20:12:16.462Z,94.70
2017-12-29T20:14:48.331Z,94.60
2017-12-29T20:17:20.223Z,94.70
2017-12-29T20:19:52.204Z,94.70
2017-12-29T20:22:24.854Z,94.60
2017-12-29T20:24:56.731Z,94.50
2017-12-29T20:27:29.387Z,94.70
2017-12-29T20:30:01.262Z,94.70
2017-12-29T20:32:33.914Z,94.60
2017-12-29T20:35:05.787Z,94.60
2017-12-29T20:37:37.689Z,94.70
2017-12-29T20:40:09.554Z,94.60
2017-12-29T20:42:41.458Z,94.60
2017-12-29T20:45:13.319Z,94.70
2017-12-29T20:47:45.226Z,94.70
2017-12-29T20:50:17.096Z,94.70
2017-12-29T20:52:49.007Z,94.70
2017-12-29T20:55:20.878Z,94.70
2017-12-29T20:57:52.772Z,94.70
2017-12-29T21:00:24.630Z,94.60
2017-12-29T21:02:56.523Z,94.80
2017-12-29T21:05:28.396Z,94.90
2017-12-29T21:08:00.308Z,94.90
2017-12-29T21:10:32.183Z,95.00
2017-12-29T21:13:04.076Z,95.00
2017-12-29T21:15:35.943Z,95.00
2017-12-29T21:18:07.830Z,95.00
2017-12-29T21:20:40.467Z,95.10
2017-12-29T21:23:12.687Z,95.10
2017-12-29T21:25:44.558Z,95.20
2017-12-29T21:28:16.443Z,95.30
2017-12-29T21:30:48.310Z,95.40
2017-12-29T21:33:20.223Z,95.80
2017-12-29T21:35:52.854Z,96.00
2017-12-29T21:38:24.755Z,96.00
2017-12-29T21:40:57.403Z,95.70
2017-12-29T21:43:29.298Z,95.70
2017-12-29T21:46:01.176Z,95.70
